Time;durP1;ratioP1;P1;durP2;ratioP2;P2;SDS_P1;SDS_P2;PMS_P1;PMS_P2;Temp;Humidity;BMP_temperature;BMP_pressure;BME280_temperature;BME280_humidity;BME280_pressure;Samples;Min_cycle;Max_cycle;Signal;HPM_P1;HPM_P2
2021/03/16 00:01:41;;;;;;;33.33;5.22;;;;;;;5.90;100.00;102286.94;12848352;23;20012;-79
2021/03/16 00:06:42;;;;;;;29.58;4.72;;;;;;;5.87;100.00;102282.13;12845719;23;20013;-76
2021/03/16 00:11:42;;;;;;;35.00;5.40;;;;;;;6.05;100.00;102320.03;12849997;23;20024;-77
2021/03/16 00:16:43;;;;;;;31.83;3.72;;;;;;;5.98;100.00;102324.97;12851837;23;20082;-78
2021/03/16 00:21:43;;;;;;;33.78;4.30;;;;;;;5.93;100.00;102323.91;12854436;23;20451;-79
2021/03/16 00:26:44;;;;;;;40.92;4.72;;;;;;;5.15;100.00;102206.44;12853815;23;20035;-77
2021/03/16 00:31:44;;;;;;;32.92;5.35;;;;;;;5.34;100.00;102247.47;12852480;23;20013;-78
2021/03/16 00:36:45;;;;;;;30.10;4.13;;;;;;;5.92;100.00;102334.94;12855080;23;20055;-78
2021/03/16 00:41:45;;;;;;;27.80;4.13;;;;;;;5.87;100.00;102341.16;12825950;23;20013;-78
2021/03/16 00:46:46;;;;;;;33.92;3.78;;;;;;;5.79;100.00;102333.78;12826615;23;20040;-78
2021/03/16 00:51:46;;;;;;;27.10;2.95;;;;;;;5.34;100.00;102268.94;12853299;23;20027;-78
2021/03/16 00:56:47;;;;;;;25.17;3.53;;;;;;;5.79;100.00;102343.72;12853312;23;20059;-78
2021/03/16 01:01:47;;;;;;;26.63;2.92;;;;;;;5.76;100.00;102334.34;12853154;23;20001;-78
2021/03/16 01:06:48;;;;;;;21.02;2.83;;;;;;;5.89;100.00;102344.38;12851220;23;20085;-79
2021/03/16 01:11:48;;;;;;;18.60;2.95;;;;;;;5.75;100.00;102354.22;12853627;23;20015;-78
2021/03/16 01:16:48;;;;;;;27.67;5.35;;;;;;;5.34;100.00;102286.88;12826031;23;20698;-79
2021/03/16 01:21:49;;;;;;;21.73;3.78;;;;;;;5.70;100.00;102351.59;12824638;23;20019;-78
2021/03/16 01:26:49;;;;;;;33.55;5.05;;;;;;;5.56;100.00;102350.72;12851267;23;20028;-78
2021/03/16 01:31:50;;;;;;;33.38;4.22;;;;;;;5.16;100.00;102315.28;12851649;23;20055;-79
2021/03/16 01:36:50;;;;;;;31.52;3.40;;;;;;;5.31;100.00;102349.94;12836740;23;20447;-78
2021/03/16 01:41:51;;;;;;;28.60;3.75;;;;;;;5.07;100.00;102323.13;12851421;23;20108;-78
2021/03/16 01:46:52;;;;;;;29.90;4.82;;;;;;;4.80;100.00;102296.91;12851184;23;20150;-79
2021/03/16 01:51:55;;;;;;;32.15;3.88;;;;;;;4.91;100.00;102314.44;12852252;23;20020;-79
2021/03/16 01:56:57;;;;;;;19.35;3.53;;;;;;;4.59;100.00;102270.31;12849836;23;20008;-79
2021/03/16 02:01:58;;;;;;;19.35;2.85;;;;;;;5.04;100.00;102340.59;12850022;23;20309;-79
2021/03/16 02:07:15;;;;;;;26.70;3.45;;;;;;;5.30;100.00;102359.06;12847699;23;20008;-79
2021/03/16 02:12:32;;;;;;;24.38;3.15;;;;;;;5.33;100.00;102352.34;12849695;23;20008;-79
2021/03/16 02:17:34;;;;;;;35.33;5.05;;;;;;;4.79;100.00;102268.50;12851533;23;20372;-79
2021/03/16 02:22:37;;;;;;;32.88;3.70;;;;;;;4.95;100.00;102269.94;12851870;23;20094;-78
2021/03/16 02:27:49;;;;;;;;;;;;;;;5.47;100.00;102347.88;12851077;23;20108;-79
2021/03/16 02:32:51;;;;;;;31.97;3.57;;;;;;;5.48;100.00;102355.63;12850335;23;20255;-78
2021/03/16 02:37:54;;;;;;;22.67;3.63;;;;;;;5.21;100.00;102317.88;12847442;23;20013;-78
2021/03/16 02:42:55;;;;;;;25.88;5.30;;;;;;;5.31;100.00;102317.75;12823377;23;20012;-79
2021/03/16 02:47:56;;;;;;;35.90;3.60;;;;;;;5.45;100.00;102334.75;12850424;23;20572;-79
2021/03/16 02:52:56;;;;;;;23.10;3.28;;;;;;;5.35;100.00;102323.34;12849783;23;20605;-79
2021/03/16 02:57:58;;;;;;;29.55;4.75;;;;;;;5.01;100.00;102271.47;12846455;23;20086;-79
2021/03/16 03:02:59;;;;;;;33.13;3.13;;;;;;;5.59;100.00;102367.03;12848777;23;20011;-79
2021/03/16 03:08:00;;;;;;;20.67;3.20;;;;;;;5.55;100.00;102349.09;12848230;23;20040;-79
2021/03/16 03:13:00;;;;;;;25.83;3.88;;;;;;;5.50;100.00;102345.44;12851213;23;20372;-79
2021/03/16 03:18:01;;;;;;;31.92;3.80;;;;;;;5.62;100.00;102371.03;12796950;23;20028;-78
2021/03/16 03:23:19;;;;;;;27.90;3.63;;;;;;;5.60;100.00;102360.59;12849507;23;20384;-79
2021/03/16 03:28:25;;;;;;;29.67;3.30;;;;;;;5.24;100.00;102306.59;12849347;23;20008;-79
2021/03/16 03:33:25;;;;;;;27.65;3.95;;;;;;;5.21;100.00;102301.81;12849209;23;20459;-79
2021/03/16 03:38:27;;;;;;;21.95;3.38;;;;;;;5.67;100.00;102373.66;12796597;23;20025;-79
2021/03/16 03:43:29;;;;;;;23.90;5.18;;;;;;;5.45;100.00;102340.09;12823398;23;20015;-80
2021/03/16 03:48:30;;;;;;;29.03;3.83;;;;;;;5.58;100.00;102370.03;12823092;23;20005;-79
2021/03/16 03:53:31;;;;;;;22.60;4.28;;;;;;;4.78;100.00;102251.63;12823888;23;20094;-79
2021/03/16 03:58:33;;;;;;;26.50;4.18;;;;;;;5.57;100.00;102379.13;12823353;23;20011;-79
2021/03/16 04:03:35;;;;;;;23.23;5.20;;;;;;;5.57;100.00;102389.88;12821758;23;20378;-79
2021/03/16 04:08:36;;;;;;;31.48;3.60;;;;;;;5.64;100.00;102401.03;12821122;23;20008;-79
2021/03/16 04:13:38;;;;;;;26.33;4.63;;;;;;;5.54;100.00;102375.13;12822217;23;20319;-79
2021/03/16 04:18:39;;;;;;;32.42;3.83;;;;;;;5.25;100.00;102332.31;12796286;23;20062;-79
2021/03/16 04:23:40;;;;;;;24.67;3.72;;;;;;;5.44;100.00;102378.75;12798226;23;20084;-79
2021/03/16 04:28:41;;;;;;;26.30;4.32;;;;;;;5.44;100.00;102376.06;12823229;23;20023;-79
2021/03/16 04:33:41;;;;;;;34.80;4.53;;;;;;;5.53;100.00;102404.94;12852638;23;20449;-79
2021/03/16 04:38:42;;;;;;;28.40;4.78;;;;;;;5.51;100.00;102411.38;12822522;23;20023;-80
2021/03/16 04:43:45;;;;;;;29.75;4.18;;;;;;;5.05;100.00;102336.00;12798820;23;20011;-79
2021/03/16 04:48:45;;;;;;;26.55;4.07;;;;;;;5.53;100.00;102421.84;12849091;23;20016;-79
2021/03/16 04:53:46;;;;;;;33.40;5.20;;;;;;;5.27;100.00;102375.75;12823011;23;20012;-79
2021/03/16 04:58:46;;;;;;;33.17;4.00;;;;;;;4.78;100.00;102293.72;12847501;23;20008;-79
2021/03/16 05:03:46;;;;;;;22.58;4.10;;;;;;;4.60;100.00;102287.97;12850998;23;20059;-79
2021/03/16 05:08:47;;;;;;;35.15;4.53;;;;;;;5.32;100.00;102389.09;12851643;23;20009;-79
2021/03/16 05:13:47;;;;;;;23.20;3.10;;;;;;;5.24;100.00;102393.19;12852811;23;20012;-79
2021/03/16 05:18:48;;;;;;;34.45;3.65;;;;;;;5.52;100.00;102436.31;12852101;23;20059;-81
2021/03/16 05:23:48;;;;;;;28.55;3.40;;;;;;;5.53;100.00;102443.31;12850626;23;20008;-80
2021/03/16 05:28:49;;;;;;;24.48;3.45;;;;;;;5.55;100.00;102434.94;12826816;23;20332;-83
2021/03/16 05:33:50;;;;;;;23.80;2.80;;;;;;;5.56;100.00;102439.25;12826016;23;20008;-84
2021/03/16 05:38:51;;;;;;;25.45;5.78;;;;;;;5.54;100.00;102433.38;12826423;23;20013;-83
2021/03/16 05:43:52;;;;;;;30.15;4.40;;;;;;;5.50;100.00;102428.56;12825839;23;20845;-83
2021/03/16 05:48:54;;;;;;;20.55;3.72;;;;;;;5.22;100.00;102410.63;12824832;23;20021;-85
2021/03/16 05:53:54;;;;;;;27.00;4.63;;;;;;;5.53;100.00;102453.22;12829110;23;20447;-83
2021/03/16 05:58:55;;;;;;;32.17;4.15;;;;;;;5.03;100.00;102376.53;12828545;23;20001;-83
2021/03/16 06:03:55;;;;;;;28.30;3.90;;;;;;;5.04;100.00;102367.38;12851155;23;20028;-79
2021/03/16 06:08:56;;;;;;;24.80;3.90;;;;;;;5.63;100.00;102453.13;12776291;23;20683;-79
2021/03/16 06:13:56;;;;;;;28.17;4.30;;;;;;;5.19;100.00;102389.75;12852995;23;20019;-80
2021/03/16 06:18:59;;;;;;;28.38;4.60;;;;;;;5.65;100.00;102472.41;12826166;23;20021;-80
2021/03/16 06:24:00;;;;;;;;;;;;;;;5.68;100.00;102466.47;12853071;23;20040;-80
2021/03/16 06:29:08;;;;;;;29.83;3.97;;;;;;;5.20;100.00;102402.09;12824668;23;19911;-80
2021/03/16 06:34:25;;;;;;;33.17;3.47;;;;;;;5.17;100.00;102381.19;12834720;23;20023;-81
2021/03/16 06:39:26;;;;;;;30.08;4.25;;;;;;;5.44;100.00;102435.06;12851364;23;20012;-82
2021/03/16 06:44:26;;;;;;;33.42;4.47;;;;;;;5.75;100.00;102472.28;12800697;23;20005;-80
2021/03/16 06:49:32;;;;;;;34.33;4.72;;;;;;;5.70;100.00;102469.66;12851345;23;20280;-80
2021/03/16 06:54:32;;;;;;;30.45;3.38;;;;;;;5.74;100.00;102465.34;12851111;23;20015;-80
2021/03/16 06:59:33;;;;;;;22.92;3.67;;;;;;;4.63;100.00;102291.97;12800347;23;20430;-80
2021/03/16 07:04:44;;;;;;;30.48;4.25;;;;;;;5.15;100.00;102386.84;12822078;23;20083;-80
2021/03/16 07:09:46;;;;;;;29.85;4.00;;;;;;;5.85;100.00;102493.63;12848508;23;20084;-80
2021/03/16 07:14:47;;;;;;;28.48;3.85;;;;;;;5.59;100.00;102425.25;12824267;23;20031;-80
2021/03/16 07:19:48;;;;;;;26.73;3.67;;;;;;;5.99;100.00;102492.97;12824037;23;20097;-81
2021/03/16 07:24:49;;;;;;;28.77;3.50;;;;;;;5.80;100.00;102491.00;12800108;23;20380;-80
2021/03/16 07:29:52;;;;;;;25.48;3.30;;;;;;;5.89;100.00;102483.94;12750770;23;20092;-80
2021/03/16 07:34:52;;;;;;;;;;;;;;;6.17;100.00;102500.28;12800658;23;20416;-80
2021/03/16 07:39:53;;;;;;;23.75;3.50;;;;;;;6.06;100.00;102474.63;12823781;23;19916;-79
2021/03/16 07:44:54;;;;;;;27.77;3.30;;;;;;;6.26;100.00;102503.91;12798418;23;20005;-79
2021/03/16 07:50:06;;;;;;;17.95;2.85;;;;;;;5.86;100.00;102430.84;12798582;23;20071;-79
2021/03/16 07:55:07;;;;;;;31.55;4.20;;;;;;;6.40;100.00;102513.94;12850230;23;20009;-79
2021/03/16 08:00:08;;;;;;;22.55;3.83;;;;;;;5.90;100.00;102437.22;12848524;23;20348;-80
2021/03/16 08:05:17;;;;;;;23.73;3.75;;;;;;;6.32;100.00;102523.44;12822897;23;20017;-80
2021/03/16 08:10:28;;;;;;;21.35;3.50;;;;;;;5.23;100.00;102353.25;12798365;23;20029;-80
2021/03/16 08:15:40;;;;;;;17.20;2.63;;;;;;;6.26;100.00;102524.59;12821131;23;20028;-80
2021/03/16 08:20:43;;;;;;;15.57;2.10;;;;;;;6.05;100.00;102502.56;12848512;23;20020;-80
2021/03/16 08:25:43;;;;;;;;;;;;;;;6.29;100.00;102524.81;12822854;23;20034;-80
2021/03/16 08:30:44;;;;;;;12.00;1.67;;;;;;;6.23;100.00;102536.72;12798340;23;19907;-80
2021/03/16 08:35:53;;;;;;;7.38;1.30;;;;;;;6.26;100.00;102541.50;12823098;23;20343;-80
2021/03/16 08:41:06;;;;;;;6.28;1.20;;;;;;;5.73;100.00;102448.41;12800804;23;20013;-80
2021/03/16 08:46:14;;;;;;;2.03;0.60;;;;;;;6.34;100.00;102532.81;12801239;23;20020;-80
2021/03/16 08:51:24;;;;;;;4.18;0.63;;;;;;;6.04;100.00;102495.59;12826123;23;20047;-80
2021/03/16 08:56:26;;;;;;;4.28;0.82;;;;;;;6.28;97.99;102538.53;12801579;23;20055;-80
2021/03/16 09:01:27;;;;;;;;;;;;;;;6.21;98.69;102549.63;12802124;23;20572;-80
2021/03/16 09:06:42;;;;;;;3.25;0.60;;;;;;;5.89;98.47;102500.03;12827323;23;19912;-81
2021/03/16 09:12:13;;;;;;;1.27;0.50;;;;;;;5.13;99.07;102396.25;12853369;23;20012;-80
2021/03/16 09:17:16;;;;;;;2.60;0.55;;;;;;;5.29;99.26;102385.09;12852385;23;20008;-79
2021/03/16 09:22:16;;;;;;;2.08;0.50;;;;;;;6.40;98.60;102540.78;12850590;23;20074;-79
2021/03/16 09:27:24;;;;;;;4.80;0.68;;;;;;;6.16;100.00;102509.41;12799386;23;20490;-79
2021/03/16 09:32:53;;;;;;;5.13;1.10;;;;;;;5.20;99.20;102396.72;12770386;23;20309;-80
2021/03/16 09:38:04;;;;;;;;;;;;;;;;;;;;;
2021/03/16 09:43:57;;;;;;;1.80;0.60;;;;;;;6.21;100.00;102544.25;12827036;23;20024;-80
2021/03/16 09:48:58;;;;;;;1.48;0.80;;;;;;;4.93;100.00;102347.13;12836345;23;20012;-81
2021/03/16 09:53:58;;;;;;;1.95;0.70;;;;;;;5.42;100.00;102399.69;12852254;23;20007;-80
2021/03/16 09:59:05;;;;;;;4.45;1.08;;;;;;;4.83;100.00;102333.84;12824361;23;20435;-81
2021/03/16 10:04:14;;;;;;;1.33;0.63;;;;;;;5.26;100.00;102376.81;12852238;23;20012;-81
2021/03/16 10:09:21;;;;;;;5.15;0.80;;;;;;;6.27;100.00;102532.34;12826076;23;20011;-81
2021/03/16 10:14:29;;;;;;;1.52;0.70;;;;;;;6.17;100.00;102511.00;12802216;23;20359;-81
2021/03/16 10:19:30;;;;;;;2.97;0.65;;;;;;;5.84;100.00;102448.31;12849569;23;20012;-81
2021/03/16 10:24:30;;;;;;;3.35;0.60;;;;;;;6.65;100.00;102529.69;12798510;23;20005;-80
2021/03/16 10:29:36;;;;;;;5.10;0.90;;;;;;;6.68;100.00;102488.81;12844351;23;20428;-80
2021/03/16 10:34:37;;;;;;;4.22;1.02;;;;;;;6.59;100.00;102406.47;12848957;23;20021;-80
2021/03/16 10:39:38;;;;;;;2.22;0.50;;;;;;;7.35;98.90;102479.66;12821341;23;20499;-81
2021/03/16 10:44:39;;;;;;;6.22;0.95;;;;;;;7.49;98.56;102520.03;12822762;23;20481;-81
2021/03/16 10:49:39;;;;;;;8.50;1.02;;;;;;;6.87;99.10;102486.13;12820246;23;20015;-81
2021/03/16 10:54:40;;;;;;;5.78;0.80;;;;;;;6.58;100.00;102488.94;12820927;23;20043;-83
2021/03/16 10:59:40;;;;;;;4.07;0.70;;;;;;;6.15;100.00;102438.00;12795069;23;20009;-80
2021/03/16 11:04:41;;;;;;;5.18;1.00;;;;;;;6.46;100.00;102518.16;12795684;23;20005;-81
2021/03/16 11:09:42;;;;;;;5.85;1.15;;;;;;;6.57;100.00;102508.88;12821596;23;20040;-81
2021/03/16 11:14:43;;;;;;;8.48;3.42;;;;;;;6.44;100.00;102488.09;12820998;23;20016;-81
2021/03/16 11:19:44;;;;;;;4.03;1.67;;;;;;;6.52;100.00;102500.88;12795870;23;20011;-81
2021/03/16 11:24:44;;;;;;;3.55;0.80;;;;;;;6.55;100.00;102511.03;12820843;23;20434;-81
2021/03/16 11:29:45;;;;;;;7.00;1.70;;;;;;;6.26;100.00;102493.16;12847712;23;20024;-81
2021/03/16 11:34:45;;;;;;;2.83;1.02;;;;;;;6.31;100.00;102511.91;12819081;23;20403;-83
2021/03/16 11:39:46;;;;;;;2.83;0.50;;;;;;;5.84;100.00;102384.69;12795684;23;20060;-79
2021/03/16 11:44:46;;;;;;;2.85;1.30;;;;;;;6.65;100.00;102500.13;12853358;23;20104;-86
2021/03/16 11:49:47;;;;;;;5.07;0.90;;;;;;;6.62;100.00;102495.34;12802593;23;20099;-83
2021/03/16 11:54:48;;;;;;;2.35;0.60;;;;;;;6.43;100.00;102427.41;12826517;23;20066;-83
2021/03/16 11:59:50;;;;;;;1.00;0.50;;;;;;;6.99;100.00;102491.03;12852362;23;20150;-82
2021/03/16 12:04:50;;;;;;;3.17;0.70;;;;;;;6.87;98.28;102479.94;12822566;23;20487;-78
2021/03/16 12:09:51;;;;;;;1.40;0.70;;;;;;;6.77;98.63;102462.88;12847698;23;20009;-79
2021/03/16 12:14:51;;;;;;;4.68;2.03;;;;;;;6.75;100.00;102478.50;12824658;23;20004;-80
2021/03/16 12:19:53;;;;;;;4.60;1.70;;;;;;;6.90;100.00;102468.59;12851012;23;20005;-78
2021/03/16 12:24:54;;;;;;;3.28;1.65;;;;;;;6.74;100.00;102439.25;12822963;23;20005;-80
2021/03/16 12:29:54;;;;;;;3.35;1.85;;;;;;;6.82;100.00;102440.50;12823497;23;20023;-80
2021/03/16 12:34:55;;;;;;;10.80;2.88;;;;;;;6.97;100.00;102458.25;12797850;23;20017;-82
2021/03/16 12:39:55;;;;;;;3.97;1.50;;;;;;;6.77;100.00;102452.13;12822953;23;20009;-86
2021/03/16 12:44:56;;;;;;;7.20;2.33;;;;;;;6.70;100.00;102449.03;12799151;23;20012;-86
2021/03/16 12:49:56;;;;;;;8.95;1.60;;;;;;;6.33;100.00;102396.91;12824344;23;20027;-85
2021/03/16 12:54:57;;;;;;;4.68;1.85;;;;;;;6.35;100.00;102424.28;12799721;23;20013;-84
2021/03/16 12:59:58;;;;;;;5.40;2.40;;;;;;;6.63;100.00;102427.09;12800869;23;20048;-85
2021/03/16 13:05:00;;;;;;;7.85;1.88;;;;;;;6.53;100.00;102365.44;12797928;23;20013;-86
2021/03/16 13:10:01;;;;;;;;;;;;;;;7.12;100.00;102423.03;12825269;23;20013;-84
2021/03/16 13:15:01;;;;;;;3.70;1.70;;;;;;;6.86;100.00;102357.38;12825174;23;19928;-80
2021/03/16 13:20:04;;;;;;;2.53;1.30;;;;;;;6.65;100.00;102338.91;12821264;23;20638;-81
2021/03/16 13:25:05;;;;;;;2.70;1.40;;;;;;;7.20;98.11;102430.41;12846587;23;20044;-79
2021/03/16 13:30:06;;;;;;;0.80;0.77;;;;;;;7.09;98.26;102380.59;12846986;23;20015;-78
2021/03/16 13:35:07;;;;;;;3.05;1.58;;;;;;;7.24;97.54;102414.47;12849343;23;20446;-79
2021/03/16 13:40:08;;;;;;;7.30;1.52;;;;;;;7.09;99.10;102369.84;12820614;23;20019;-79
2021/03/16 13:45:09;;;;;;;4.55;2.00;;;;;;;6.60;99.56;102261.06;12820187;23;20004;-80
2021/03/16 13:50:10;;;;;;;5.47;2.30;;;;;;;6.66;99.16;102292.16;12845562;23;20013;-80
2021/03/16 13:55:12;;;;;;;5.45;2.05;;;;;;;7.51;100.00;102418.28;12793894;23;20004;-79
2021/03/16 14:00:13;;;;;;;4.85;1.80;;;;;;;7.11;96.58;102356.91;12820920;23;20005;-80
2021/03/16 14:05:13;;;;;;;2.97;1.30;;;;;;;6.91;96.84;102335.75;12845962;23;20001;-79
2021/03/16 14:10:14;;;;;;;2.15;1.20;;;;;;;7.27;97.61;102386.22;12819392;23;20004;-78
2021/03/16 14:15:15;;;;;;;2.72;1.17;;;;;;;6.84;96.94;102346.09;12819100;23;20009;-76
2021/03/16 14:20:15;;;;;;;6.35;2.33;;;;;;;7.25;99.26;102393.78;12819042;23;20000;-80
2021/03/16 14:25:16;;;;;;;6.15;2.67;;;;;;;7.16;100.00;102397.13;12818009;23;20095;-78
2021/03/16 14:30:17;;;;;;;8.38;2.88;;;;;;;7.01;100.00;102394.75;12820034;23;20043;-79
2021/03/16 14:35:17;;;;;;;7.25;3.10;;;;;;;6.45;100.00;102332.00;12845357;23;20420;-79
2021/03/16 14:40:18;;;;;;;3.92;2.05;;;;;;;6.80;100.00;102393.47;12845327;23;20319;-80
2021/03/16 14:45:18;;;;;;;4.47;2.20;;;;;;;6.87;100.00;102404.69;12845430;23;20083;-82
2021/03/16 14:50:19;;;;;;;3.67;1.98;;;;;;;6.80;100.00;102393.47;12844917;23;20316;-80
2021/03/16 14:55:19;;;;;;;2.10;1.90;;;;;;;6.81;100.00;102384.34;12818674;23;20005;-80
2021/03/16 15:00:20;;;;;;;4.45;2.30;;;;;;;6.25;100.00;102317.00;12845484;23;20036;-79
2021/03/16 15:05:21;;;;;;;2.88;2.00;;;;;;;5.60;100.00;102233.72;12861258;23;20004;-80
2021/03/16 15:10:22;;;;;;;4.93;2.83;;;;;;;6.75;100.00;102392.50;12846710;23;20012;-81
2021/03/16 15:15:24;;;;;;;3.30;2.65;;;;;;;6.43;100.00;102341.44;12844806;23;20013;-80
2021/03/16 15:20:24;;;;;;;8.05;4.00;;;;;;;6.11;100.00;102281.25;12794202;23;20054;-80
2021/03/16 15:25:25;;;;;;;7.75;4.43;;;;;;;6.59;100.00;102383.09;12818212;23;20001;-79
2021/03/16 15:30:26;;;;;;;7.72;3.80;;;;;;;6.41;100.00;102338.25;12844845;23;20027;-79
2021/03/16 15:35:26;;;;;;;4.28;3.30;;;;;;;6.45;100.00;102339.28;12843747;23;20021;-81
2021/03/16 15:40:27;;;;;;;5.03;3.30;;;;;;;6.18;100.00;102303.16;12819689;23;20013;-82
2021/03/16 15:45:27;;;;;;;3.65;3.20;;;;;;;6.68;100.00;102375.97;12795553;23;20098;-84
2021/03/16 15:50:28;;;;;;;6.57;3.80;;;;;;;6.18;100.00;102292.41;12846551;23;20351;-80
2021/03/16 15:55:29;;;;;;;8.00;4.55;;;;;;;6.17;100.00;102269.34;12845555;23;20008;-86
2021/03/16 16:00:29;;;;;;;6.60;4.55;;;;;;;6.64;100.00;102350.75;12793772;23;20031;-78
2021/03/16 16:05:30;;;;;;;5.40;3.78;;;;;;;6.11;100.00;102260.59;12792660;23;20017;-81
2021/03/16 16:10:30;;;;;;;6.05;3.65;;;;;;;6.61;100.00;102327.16;12844909;23;20111;-80
2021/03/16 16:15:31;;;;;;;6.38;5.13;;;;;;;6.90;100.00;102347.63;12845558;23;20407;-81
2021/03/16 16:20:31;;;;;;;4.28;3.70;;;;;;;6.74;100.00;102323.69;12816902;23;20016;-81
2021/03/16 16:25:32;;;;;;;6.68;4.72;;;;;;;6.88;100.00;102368.63;12820553;23;20309;-78
2021/03/16 16:30:32;;;;;;;7.85;4.40;;;;;;;6.23;100.00;102276.25;12783183;23;20453;-79
2021/03/16 16:35:33;;;;;;;7.43;4.35;;;;;;;6.17;100.00;102268.56;12838744;23;20013;-79
2021/03/16 16:40:34;;;;;;;5.28;4.07;;;;;;;6.05;100.00;102287.81;12844318;23;20041;-78
2021/03/16 16:45:35;;;;;;;6.10;4.50;;;;;;;5.89;100.00;102258.47;12819508;23;20350;-85
2021/03/16 16:50:36;;;;;;;6.85;3.80;;;;;;;6.51;100.00;102354.19;12820517;23;20344;-81
2021/03/16 16:55:37;;;;;;;21.58;10.98;;;;;;;5.93;100.00;102272.91;12793782;23;20008;-86
2021/03/16 17:00:37;;;;;;;8.75;5.78;;;;;;;6.49;100.00;102345.63;12823466;23;20102;-80
2021/03/16 17:05:38;;;;;;;9.57;7.40;;;;;;;5.15;100.00;102152.81;12848640;23;20074;-81
2021/03/16 17:10:38;;;;;;;10.43;6.30;;;;;;;6.03;100.00;102311.47;12851321;23;20009;-83
2021/03/16 17:15:47;;;;;;;11.15;7.65;;;;;;;6.27;100.00;102333.63;12822097;23;20008;-85
2021/03/16 17:20:47;;;;;;;10.80;7.95;;;;;;;6.34;100.00;102349.38;12799858;23;20036;-82
2021/03/16 17:25:48;;;;;;;9.00;6.90;;;;;;;6.26;100.00;102348.16;12848626;23;20017;-85
2021/03/16 17:31:00;;;;;;;8.55;7.32;;;;;;;5.86;100.00;102280.53;12773970;23;20017;-86
2021/03/16 17:36:05;;;;;;;10.70;8.30;;;;;;;6.08;100.00;102330.16;12825090;23;20016;-79
2021/03/16 17:41:05;;;;;;;8.85;7.38;;;;;;;6.23;100.00;102358.66;12821147;23;20015;-81
2021/03/16 17:46:05;;;;;;;7.32;6.18;;;;;;;6.11;100.00;102345.69;12820968;23;20019;-79
2021/03/16 17:51:06;;;;;;;8.57;7.25;;;;;;;5.46;100.00;102266.63;12849930;23;20031;-80
2021/03/16 17:56:07;;;;;;;12.43;8.25;;;;;;;6.14;100.00;102362.03;12852137;23;20009;-79
2021/03/16 18:01:07;;;;;;;14.07;9.27;;;;;;;6.16;100.00;102353.66;12850063;23;20015;-76
2021/03/16 18:06:08;;;;;;;14.13;10.27;;;;;;;6.12;100.00;102358.03;12820867;23;20013;-78
2021/03/16 18:11:08;;;;;;;13.32;10.52;;;;;;;5.90;100.00;102335.25;12838190;23;20025;-78
2021/03/16 18:16:09;;;;;;;23.02;16.05;;;;;;;5.99;100.00;102338.06;12844166;23;20008;-77
2021/03/16 18:21:09;;;;;;;18.95;14.98;;;;;;;5.86;100.00;102344.94;12844375;23;20498;-78
2021/03/16 18:26:10;;;;;;;19.98;13.05;;;;;;;5.92;100.00;102333.03;12814670;23;20055;-83
2021/03/16 18:31:10;;;;;;;22.00;14.93;;;;;;;6.10;100.00;102350.25;12816862;23;20131;-78
2021/03/16 18:36:11;;;;;;;22.55;16.42;;;;;;;6.07;100.00;102344.69;12843031;23;20059;-82
2021/03/16 18:41:12;;;;;;;26.45;17.67;;;;;;;6.05;100.00;102346.88;12845272;23;20013;-75
2021/03/16 18:46:12;;;;;;;27.75;18.85;;;;;;;5.98;100.00;102324.97;12814292;23;20009;-77
2021/03/16 18:51:13;;;;;;;28.63;19.48;;;;;;;5.46;100.00;102261.25;12842280;23;20421;-79
2021/03/16 18:56:14;;;;;;;32.85;23.27;;;;;;;5.06;100.00;102200.94;12814969;23;20005;-82
2021/03/16 19:01:14;;;;;;;33.95;22.48;;;;;;;6.02;100.00;102331.31;12841466;23;20451;-78
2021/03/16 19:06:15;;;;;;;34.35;23.52;;;;;;;6.05;100.00;102341.50;12842387;23;20008;-78
2021/03/16 19:11:15;;;;;;;38.28;25.17;;;;;;;5.65;100.00;102268.53;12841693;23;20016;-77
2021/03/16 19:16:16;;;;;;;37.17;24.17;;;;;;;6.09;100.00;102326.38;12845216;23;20032;-80
2021/03/16 19:21:16;;;;;;;38.17;23.98;;;;;;;5.76;100.00;102269.94;12792908;23;20012;-84
2021/03/16 19:26:17;;;;;;;39.40;24.60;;;;;;;5.97;100.00;102307.25;12795627;23;20097;-82
2021/03/16 19:31:21;;;;;;;41.00;25.67;;;;;;;5.91;100.00;102277.78;12769174;23;20023;-81
2021/03/16 19:36:22;;;;;;;52.75;28.63;;;;;;;6.13;100.00;102305.94;12795163;23;20040;-81
2021/03/16 19:41:22;;;;;;;52.42;29.50;;;;;;;5.26;100.00;102175.72;12817363;23;20043;-80
2021/03/16 19:46:23;;;;;;;48.20;27.60;;;;;;;6.06;100.00;102305.50;12820179;23;20013;-84
2021/03/16 19:51:23;;;;;;;46.05;27.65;;;;;;;4.82;100.00;102128.59;12790436;23;20001;-83
2021/03/16 19:56:24;;;;;;;52.50;28.48;;;;;;;5.87;100.00;102270.59;12843014;23;20009;-85
2021/03/16 20:01:24;;;;;;;53.72;28.70;;;;;;;6.00;100.00;102290.59;12792268;23;20062;-86
2021/03/16 20:06:25;;;;;;;53.58;30.15;;;;;;;6.06;100.00;102284.81;12792449;23;20035;-85
2021/03/16 20:11:25;;;;;;;56.55;30.63;;;;;;;5.96;100.00;102257.34;12820073;23;20008;-85
2021/03/16 20:16:26;;;;;;;55.55;31.42;;;;;;;6.08;100.00;102276.47;12852867;23;20481;-87
2021/03/16 20:21:30;;;;;;;55.55;30.10;;;;;;;6.05;100.00;102255.59;12795224;23;20582;-87
2021/03/16 20:26:31;;;;;;;58.40;31.83;;;;;;;5.48;100.00;102175.94;12794750;23;20335;-85
2021/03/16 20:31:55;;;;;;;64.22;32.90;;;;;;;4.31;100.00;102000.75;12821847;23;20424;-88
2021/03/16 20:43:01;;;;;;;66.93;33.88;;;;;;;4.43;100.00;102025.22;12823997;23;20108;-90
2021/03/16 20:48:42;;;;;;;67.22;34.30;;;;;;;4.96;100.00;102118.78;12814849;23;20039;-89
2021/03/16 20:53:45;;;;;;;70.90;35.33;;;;;;;6.21;100.00;102332.13;12866131;23;20087;-90
2021/03/16 20:58:46;;;;;;;66.95;32.95;;;;;;;5.40;100.00;102171.22;12800674;23;20446;-79
2021/03/16 21:03:46;;;;;;;60.17;31.50;;;;;;;6.01;100.00;102270.69;12824023;23;20015;-82
2021/03/16 21:08:47;;;;;;;49.55;25.85;;;;;;;5.79;100.00;102225.66;12821787;23;20009;-77
2021/03/16 21:13:48;;;;;;;50.20;25.45;;;;;;;6.27;100.00;102306.78;12796440;23;20238;-83
2021/03/16 21:18:49;;;;;;;45.80;24.83;;;;;;;4.86;100.00;102059.97;12821769;23;20008;-85
2021/03/16 21:23:49;;;;;;;47.05;23.48;;;;;;;5.85;100.00;102214.53;12844953;23;20038;-80
2021/03/16 21:28:52;;;;;;;48.97;24.17;;;;;;;5.85;100.00;102203.78;12820178;23;20119;-80
2021/03/16 21:34:14;;;;;;;;;;;;;;;;;;;;;
2021/03/16 21:45:51;;;;;;;;;;;;;;;;;;;;;
2021/03/16 21:51:15;;;;;;;33.50;12.75;;;;;;;5.31;100.00;102124.69;12820374;23;20012;-82
2021/03/16 21:56:43;;;;;;;34.80;8.65;;;;;;;5.03;100.00;102049.56;12821507;23;20008;-81
2021/03/16 22:02:02;;;;;;;35.28;6.32;;;;;;;4.77;100.00;101986.69;12821458;23;20009;-82
2021/03/16 22:07:26;;;;;;;36.85;6.95;;;;;;;6.33;100.00;102198.19;12795831;23;20016;-82
2021/03/16 22:13:07;;;;;;;;;;;;;;;;;;;;;
2021/03/16 22:18:51;;;;;;;33.17;8.30;;;;;;;6.08;100.00;102190.56;12805191;23;20059;-82
2021/03/16 22:24:34;;;;;;;31.52;13.40;;;;;;;6.22;100.00;102215.56;12802495;23;20013;-82
2021/03/16 22:29:59;;;;;;;;;;;;;;;;;;;;;
2021/03/16 22:35:25;;;;;;;51.22;21.45;;;;;;;6.20;100.00;102263.38;12801802;22;20025;-82
2021/03/16 22:40:29;;;;;;;53.40;22.60;;;;;;;4.70;100.00;102082.69;12882358;23;20459;-83
2021/03/16 22:45:29;;;;;;;49.92;21.63;;;;;;;5.25;100.00;102163.41;12856844;23;20019;-83
2021/03/16 22:51:23;;;;;;;;;;;;;;;;;;;;;
2021/03/16 22:56:49;;;;;;;;;;;;;;;;;;;;;
2021/03/16 23:02:10;;;;;;;30.73;16.27;;;;;;;4.39;100.00;102117.91;12880513;23;20009;-83
2021/03/16 23:07:54;;;;;;;30.15;17.67;;;;;;;5.92;100.00;102381.34;12791437;23;20008;-83
2021/03/16 23:13:24;;;;;;;33.90;19.75;;;;;;;4.23;100.00;102173.47;12858036;23;20335;-83
2021/03/16 23:18:57;;;;;;;;;;;;;;;;;;;;;
2021/03/16 23:29:44;;;;;;;41.35;23.20;;;;;;;4.37;100.00;102278.81;12890131;23;20035;-83
2021/03/16 23:34:47;;;;;;;45.53;25.60;;;;;;;4.56;100.00;102327.13;12882798;23;20000;-83
2021/03/16 23:40:23;;;;;;;38.95;23.50;;;;;;;5.46;100.00;102453.56;12802406;23;20066;-83
2021/03/16 23:46:01;;;;;;;;;;;;;;;;;;;;;
2021/03/16 23:51:51;;;;;;;37.40;21.83;;;;;;;4.53;100.00;102346.41;12805978;23;19908;-84
2021/03/16 23:57:22;;;;;;;;;;;;;;;;;;;;;
